createdAt,value
2022-09-14T00:02:04.420Z,17.51
2022-09-14T00:04:30.713Z,17.60
2022-09-14T00:06:56.981Z,17.59
2022-09-14T00:09:23.262Z,17.62
2022-09-14T00:11:49.610Z,17.61
2022-09-14T00:14:15.863Z,17.50
2022-09-14T00:16:42.275Z,17.43
2022-09-14T00:19:08.708Z,17.45
2022-09-14T00:21:35.026Z,17.47
2022-09-14T00:24:03.148Z,17.49
2022-09-14T00:26:29.403Z,17.41
2022-09-14T00:28:55.672Z,17.43
2022-09-14T00:31:21.983Z,17.48
2022-09-14T00:33:48.405Z,17.45
2022-09-14T00:36:14.697Z,17.44
2022-09-14T00:38:41.738Z,17.42
2022-09-14T00:41:07.929Z,17.37
2022-09-14T00:43:34.198Z,17.40
2022-09-14T00:46:00.534Z,17.46
2022-09-14T00:48:26.843Z,17.48
2022-09-14T00:50:53.106Z,17.49
2022-09-14T00:53:19.396Z,17.51
2022-09-14T00:55:45.651Z,17.51
2022-09-14T00:58:11.901Z,17.52
2022-09-14T01:00:38.205Z,17.52
2022-09-14T01:03:04.468Z,17.53
2022-09-14T01:05:30.761Z,17.57
2022-09-14T01:07:57.013Z,17.50
2022-09-14T01:10:23.269Z,17.41
2022-09-14T01:12:49.535Z,17.45
2022-09-14T01:15:17.028Z,17.47
2022-09-14T01:17:43.279Z,17.52
2022-09-14T01:20:10.365Z,17.52
2022-09-14T01:22:36.560Z,17.53
2022-09-14T01:25:02.825Z,17.50
2022-09-14T01:27:29.089Z,17.47
2022-09-14T01:29:55.356Z,17.50
2022-09-14T01:32:21.616Z,17.54
2022-09-14T01:34:47.965Z,17.53
2022-09-14T01:37:14.239Z,17.54
2022-09-14T01:39:40.491Z,17.53
2022-09-14T01:42:06.757Z,17.60
2022-09-14T01:44:33.004Z,17.57
2022-09-14T01:46:59.255Z,17.57
2022-09-14T01:49:25.529Z,17.52
2022-09-14T01:51:51.788Z,17.53
2022-09-14T01:54:18.103Z,17.52
2022-09-14T01:56:44.393Z,17.56
2022-09-14T01:59:10.709Z,17.54
2022-09-14T02:01:36.978Z,17.56
2022-09-14T02:04:03.352Z,17.47
2022-09-14T02:06:29.831Z,17.52
2022-09-14T02:08:56.256Z,17.51
2022-09-14T02:11:22.515Z,17.48
2022-09-14T02:13:48.771Z,17.50
2022-09-14T02:16:15.058Z,17.50
2022-09-14T02:18:43.447Z,17.45
2022-09-14T02:21:09.703Z,17.46
2022-09-14T02:23:35.988Z,17.44
2022-09-14T02:26:02.242Z,17.47
2022-09-14T02:28:28.533Z,17.47
2022-09-14T02:30:55.135Z,17.43
2022-09-14T02:33:21.484Z,17.43
2022-09-14T02:35:47.747Z,17.46
2022-09-14T02:38:14.193Z,17.41
2022-09-14T02:40:40.847Z,17.42
2022-09-14T02:43:07.119Z,17.41
2022-09-14T02:45:33.599Z,17.43
2022-09-14T02:47:59.861Z,17.45
2022-09-14T02:50:26.113Z,17.48
2022-09-14T02:52:52.545Z,17.41
2022-09-14T02:55:19.018Z,17.40
2022-09-14T02:57:45.275Z,17.43
2022-09-14T03:00:11.528Z,17.01
2022-09-14T03:02:37.794Z,17.00
2022-09-14T03:05:04.061Z,17.18
2022-09-14T03:07:30.310Z,17.31
2022-09-14T03:09:56.566Z,17.39
2022-09-14T03:12:22.824Z,17.40
2022-09-14T03:14:49.086Z,17.39
2022-09-14T03:17:15.353Z,17.37
2022-09-14T03:19:41.817Z,17.43
2022-09-14T03:22:08.071Z,17.47
2022-09-14T03:24:34.596Z,17.49
2022-09-14T03:27:00.868Z,17.47
2022-09-14T03:29:27.121Z,17.50
2022-09-14T03:31:53.448Z,17.56
2022-09-14T03:34:19.744Z,17.58
2022-09-14T03:36:46.000Z,17.55
2022-09-14T03:39:12.444Z,17.56
2022-09-14T03:41:38.915Z,17.58
2022-09-14T03:44:05.174Z,17.58
2022-09-14T03:46:31.506Z,17.60
2022-09-14T03:48:57.814Z,17.65
2022-09-14T03:51:24.073Z,17.66
2022-09-14T03:53:50.475Z,17.66
2022-09-14T03:56:16.928Z,17.65
2022-09-14T03:58:43.227Z,17.60
2022-09-14T04:01:09.562Z,17.57
2022-09-14T04:03:35.828Z,17.56
2022-09-14T04:06:05.251Z,17.59
2022-09-14T04:08:31.553Z,17.64
2022-09-14T04:10:57.815Z,17.63
2022-09-14T04:13:24.111Z,17.51
2022-09-14T04:15:50.493Z,17.55
2022-09-14T04:18:16.769Z,17.61
2022-09-14T04:20:43.064Z,17.65
2022-09-14T04:23:09.324Z,17.68
2022-09-14T04:25:35.645Z,17.70
2022-09-14T04:28:19.715Z,17.70
2022-09-14T04:30:46.623Z,17.69
2022-09-14T04:33:12.885Z,17.65
2022-09-14T04:35:39.143Z,17.56
2022-09-14T04:38:05.436Z,17.62
2022-09-14T04:40:31.768Z,17.66
2022-09-14T04:42:58.072Z,17.65
2022-09-14T04:45:24.345Z,17.70
2022-09-14T04:47:50.609Z,17.64
2022-09-14T04:50:16.970Z,17.68
2022-09-14T04:52:43.242Z,17.68
2022-09-14T04:55:10.188Z,17.67
2022-09-14T04:57:36.449Z,17.70
2022-09-14T05:00:02.709Z,17.73
2022-09-14T05:02:30.930Z,17.73
2022-09-14T05:04:58.762Z,17.77
2022-09-14T05:07:25.057Z,17.75
2022-09-14T05:09:51.337Z,17.78
2022-09-14T05:12:17.587Z,17.76
2022-09-14T05:14:43.862Z,17.79
2022-09-14T05:17:10.412Z,17.81
2022-09-14T05:19:36.692Z,17.77
2022-09-14T05:22:02.953Z,17.70
2022-09-14T05:24:29.219Z,17.71
2022-09-14T05:27:00.096Z,17.76
2022-09-14T05:29:27.335Z,17.80
2022-09-14T05:31:53.623Z,17.80
2022-09-14T05:34:19.896Z,17.83
2022-09-14T05:36:46.202Z,17.82
2022-09-14T05:39:13.545Z,17.81
2022-09-14T05:41:39.796Z,17.71
2022-09-14T05:44:06.209Z,17.60
2022-09-14T05:46:32.550Z,17.70
2022-09-14T05:48:58.835Z,17.77
2022-09-14T05:51:25.100Z,17.73
2022-09-14T05:53:51.401Z,17.56
2022-09-14T05:56:17.688Z,17.72
2022-09-14T05:58:44.030Z,17.79
2022-09-14T06:01:10.305Z,17.83
2022-09-14T06:03:36.640Z,17.81
2022-09-14T06:06:02.910Z,17.87
2022-09-14T06:08:29.246Z,17.89
2022-09-14T06:10:55.510Z,17.91
2022-09-14T06:13:23.309Z,17.93
2022-09-14T06:15:49.576Z,17.98
2022-09-14T06:18:15.839Z,18.01
2022-09-14T06:20:42.096Z,18.05
2022-09-14T06:23:08.424Z,18.09
2022-09-14T06:25:34.703Z,18.14
2022-09-14T06:28:00.988Z,18.11
2022-09-14T06:30:27.750Z,18.16
2022-09-14T06:32:54.021Z,18.16
2022-09-14T06:35:20.860Z,18.17
2022-09-14T06:37:47.157Z,18.14
2022-09-14T06:40:13.448Z,18.19
2022-09-14T06:42:39.728Z,18.16
2022-09-14T06:45:06.092Z,18.14
2022-09-14T06:47:32.406Z,18.14
2022-09-14T06:49:58.998Z,18.18
2022-09-14T06:52:25.297Z,18.17
2022-09-14T06:54:51.571Z,18.19
2022-09-14T06:57:17.844Z,18.18
2022-09-14T06:59:44.682Z,18.19
2022-09-14T07:02:11.002Z,18.19
2022-09-14T07:04:37.307Z,18.21
2022-09-14T07:07:03.568Z,18.24
2022-09-14T07:09:31.654Z,18.23
2022-09-14T07:11:57.917Z,18.23
2022-09-14T07:14:24.182Z,18.05
2022-09-14T07:16:50.463Z,17.93
2022-09-14T07:19:16.735Z,18.06
2022-09-14T07:21:43.051Z,18.16
2022-09-14T07:24:09.345Z,18.23
2022-09-14T07:26:39.374Z,18.31
2022-09-14T07:29:06.115Z,18.36
2022-09-14T07:31:32.376Z,18.42
2022-09-14T07:33:58.657Z,18.37
2022-09-14T07:36:25.136Z,18.31
2022-09-14T07:38:52.985Z,18.28
2022-09-14T07:41:20.485Z,18.34
2022-09-14T07:43:46.772Z,18.34
2022-09-14T07:46:13.059Z,18.26
2022-09-14T07:48:39.409Z,18.25
2022-09-14T07:51:05.745Z,18.37
2022-09-14T07:53:32.880Z,18.41
2022-09-14T07:55:59.430Z,18.46
2022-09-14T07:58:25.737Z,18.49
2022-09-14T08:00:52.100Z,18.41
2022-09-14T08:03:18.463Z,18.46
2022-09-14T08:05:44.715Z,18.52
2022-09-14T08:08:10.984Z,18.56
2022-09-14T08:10:37.522Z,18.66
2022-09-14T08:13:03.945Z,18.68
2022-09-14T08:15:31.714Z,18.73
2022-09-14T08:17:57.979Z,18.44
2022-09-14T08:20:24.251Z,18.20
2022-09-14T08:22:50.506Z,18.54
2022-09-14T08:25:17.071Z,18.67
2022-09-14T08:27:43.329Z,18.70
2022-09-14T08:30:10.135Z,18.74
2022-09-14T08:32:36.455Z,18.74
2022-09-14T08:35:02.735Z,18.78
2022-09-14T08:37:29.049Z,18.74
2022-09-14T08:39:55.325Z,18.63
2022-09-14T08:42:22.909Z,18.68
2022-09-14T08:44:49.171Z,18.53
2022-09-14T08:47:15.497Z,18.56
2022-09-14T08:49:41.885Z,18.53
2022-09-14T08:52:08.146Z,18.64
2022-09-14T08:54:34.415Z,18.62
2022-09-14T08:57:01.125Z,18.56
2022-09-14T08:59:27.491Z,18.41
2022-09-14T09:01:53.767Z,18.49
2022-09-14T09:04:20.083Z,18.61
2022-09-14T09:06:46.380Z,18.78
2022-09-14T09:09:12.636Z,18.91
2022-09-14T09:11:38.919Z,19.07
2022-09-14T09:14:05.179Z,19.18
2022-09-14T09:16:31.561Z,19.22
2022-09-14T09:18:57.868Z,19.19
2022-09-14T09:21:24.161Z,19.15
2022-09-14T09:23:50.478Z,19.01
2022-09-14T09:26:16.952Z,18.84
2022-09-14T09:28:43.240Z,18.70
2022-09-14T09:31:14.469Z,18.65
2022-09-14T09:33:41.054Z,18.95
2022-09-14T09:36:08.083Z,19.11
2022-09-14T09:38:38.024Z,19.24
2022-09-14T09:41:04.286Z,19.28
2022-09-14T09:43:48.310Z,19.28
2022-09-14T09:46:15.055Z,19.14
2022-09-14T09:48:41.724Z,19.26
2022-09-14T09:51:08.030Z,19.37
2022-09-14T09:53:34.298Z,19.33
2022-09-14T09:56:00.555Z,19.43
2022-09-14T09:58:26.833Z,19.53
2022-09-14T10:00:53.148Z,19.51
2022-09-14T10:03:19.458Z,19.67
2022-09-14T10:05:45.726Z,19.70
2022-09-14T10:08:12.922Z,19.67
2022-09-14T10:10:39.224Z,19.59
2022-09-14T10:13:05.490Z,19.62
2022-09-14T10:15:31.752Z,19.68
2022-09-14T10:17:58.025Z,19.71
2022-09-14T10:20:24.295Z,19.71
2022-09-14T10:22:50.560Z,19.66
2022-09-14T10:25:17.440Z,19.59
2022-09-14T10:27:43.930Z,19.52
2022-09-14T10:30:10.460Z,19.56
2022-09-14T10:32:37.829Z,19.60
2022-09-14T10:35:04.346Z,19.63
2022-09-14T10:37:31.998Z,19.66
2022-09-14T10:39:58.333Z,19.80
2022-09-14T10:42:24.695Z,19.91
2022-09-14T10:44:50.958Z,19.93
2022-09-14T10:47:17.219Z,19.72
2022-09-14T10:49:43.534Z,19.75
2022-09-14T10:52:10.783Z,19.77
2022-09-14T10:54:37.112Z,19.74
2022-09-14T10:57:04.120Z,19.56
2022-09-14T10:59:31.797Z,19.36
2022-09-14T11:01:58.464Z,18.97
2022-09-14T11:04:24.800Z,19.01
2022-09-14T11:06:51.065Z,18.87
2022-09-14T11:09:17.323Z,19.03
2022-09-14T11:11:43.580Z,19.15
2022-09-14T11:14:09.861Z,19.14
2022-09-14T11:16:36.125Z,19.27
2022-09-14T11:19:02.391Z,19.34
2022-09-14T11:21:28.750Z,19.38
2022-09-14T11:23:58.974Z,19.41
2022-09-14T11:26:25.427Z,19.44
2022-09-14T11:28:51.704Z,19.49
2022-09-14T11:31:18.047Z,19.54
2022-09-14T11:33:44.370Z,19.57
2022-09-14T11:36:10.685Z,19.60
2022-09-14T11:38:36.993Z,19.64
2022-09-14T11:41:03.261Z,19.71
2022-09-14T11:43:29.744Z,19.73
2022-09-14T11:45:56.114Z,19.75
2022-09-14T11:51:08.913Z,19.53
2022-09-14T11:53:35.223Z,19.46
2022-09-14T11:56:01.519Z,19.57
2022-09-14T11:58:29.545Z,19.70
2022-09-14T12:00:55.800Z,19.78
2022-09-14T12:03:22.160Z,19.86
2022-09-14T12:05:48.518Z,19.91
2022-09-14T12:08:14.791Z,19.98
2022-09-14T12:10:45.299Z,20.00
2022-09-14T12:13:12.171Z,20.06
2022-09-14T12:15:40.974Z,20.09
2022-09-14T12:18:07.352Z,19.81
2022-09-14T12:20:33.636Z,19.58
2022-09-14T12:22:59.897Z,19.84
2022-09-14T12:25:26.143Z,19.90
2022-09-14T12:27:52.416Z,20.00
2022-09-14T12:30:18.682Z,20.05
2022-09-14T12:32:44.942Z,20.15
2022-09-14T12:35:11.191Z,20.23
2022-09-14T12:37:37.451Z,20.22
2022-09-14T12:40:04.013Z,20.28
2022-09-14T12:42:32.052Z,20.17
2022-09-14T12:44:58.256Z,20.17
2022-09-14T12:47:24.504Z,20.28
2022-09-14T12:49:50.761Z,20.35
2022-09-14T12:52:17.112Z,20.45
2022-09-14T12:54:45.226Z,20.54
2022-09-14T12:57:14.349Z,20.54
2022-09-14T12:59:40.625Z,20.51
2022-09-14T13:02:06.986Z,20.52
2022-09-14T13:04:33.363Z,20.49
2022-09-14T13:06:59.673Z,20.30
2022-09-14T13:09:29.117Z,20.32
2022-09-14T13:11:55.397Z,20.70
2022-09-14T13:14:21.648Z,20.72
2022-09-14T13:16:47.906Z,20.74
2022-09-14T13:19:15.211Z,20.78
2022-09-14T13:21:41.517Z,20.70
2022-09-14T13:24:07.768Z,20.66
2022-09-14T13:26:34.424Z,20.43
2022-09-14T13:29:00.724Z,20.50
2022-09-14T13:31:27.130Z,20.37
2022-09-14T13:33:53.407Z,20.36
2022-09-14T13:36:19.665Z,20.35
2022-09-14T13:38:45.937Z,20.33
2022-09-14T13:41:12.197Z,20.30
2022-09-14T13:43:38.443Z,20.28
2022-09-14T13:46:04.788Z,20.15
2022-09-14T13:48:31.160Z,20.16
2022-09-14T13:50:57.507Z,20.19
2022-09-14T13:53:23.783Z,20.13
2022-09-14T13:55:50.080Z,20.06
2022-09-14T13:58:16.357Z,20.12
2022-09-14T14:00:42.628Z,20.19
2022-09-14T14:03:08.875Z,20.10
2022-09-14T14:05:35.150Z,20.18
2022-09-14T14:08:01.467Z,20.18
2022-09-14T14:10:27.747Z,20.16
2022-09-14T14:12:53.998Z,20.11
2022-09-14T14:15:20.299Z,20.12
2022-09-14T14:17:46.583Z,20.13
2022-09-14T14:20:12.886Z,20.17
2022-09-14T14:22:39.223Z,20.11
2022-09-14T14:25:13.978Z,20.09
2022-09-14T14:27:40.604Z,19.98
2022-09-14T14:30:06.900Z,20.03
2022-09-14T14:32:33.440Z,20.09
2022-09-14T14:34:59.697Z,19.95
2022-09-14T14:37:25.963Z,20.05
2022-09-14T14:39:52.350Z,20.10
2022-09-14T14:42:18.703Z,20.12
2022-09-14T14:44:45.043Z,20.11
2022-09-14T14:47:11.393Z,20.12
2022-09-14T14:49:37.710Z,19.98
2022-09-14T14:52:04.279Z,19.73
2022-09-14T14:54:30.527Z,19.77
2022-09-14T14:56:56.808Z,19.80
2022-09-14T14:59:23.069Z,19.90
2022-09-14T15:01:49.329Z,19.97
2022-09-14T15:04:15.633Z,20.00
2022-09-14T15:06:42.173Z,19.94
2022-09-14T15:09:09.674Z,19.96
2022-09-14T15:11:38.229Z,19.99
2022-09-14T15:14:04.517Z,19.93
2022-09-14T15:16:30.793Z,19.78
2022-09-14T15:18:57.114Z,19.73
2022-09-14T15:21:23.710Z,19.70
2022-09-14T15:23:50.107Z,19.67
2022-09-14T15:26:16.459Z,19.72
2022-09-14T15:28:42.719Z,19.78
2022-09-14T15:31:09.015Z,19.59
2022-09-14T15:33:35.301Z,19.62
2022-09-14T15:36:01.613Z,19.71
2022-09-14T15:38:27.927Z,19.78
2022-09-14T15:40:54.215Z,19.69
2022-09-14T15:43:20.484Z,19.74
2022-09-14T15:45:46.817Z,19.69
2022-09-14T15:48:13.517Z,19.89
2022-09-14T15:50:39.775Z,19.94
2022-09-14T15:53:06.035Z,19.81
2022-09-14T15:55:32.344Z,19.83
2022-09-14T15:57:58.604Z,19.73
2022-09-14T16:00:24.861Z,19.74
2022-09-14T16:02:51.141Z,19.91
2022-09-14T16:05:18.864Z,19.91
2022-09-14T16:07:45.184Z,19.91
2022-09-14T16:10:11.435Z,19.87
2022-09-14T16:12:37.700Z,19.64
2022-09-14T16:15:03.962Z,19.51
2022-09-14T16:17:30.217Z,19.67
2022-09-14T16:19:56.567Z,19.76
2022-09-14T16:22:25.140Z,19.45
2022-09-14T16:24:51.499Z,19.30
2022-09-14T16:27:17.764Z,19.32
2022-09-14T16:29:44.047Z,19.45
2022-09-14T16:32:10.403Z,19.54
2022-09-14T16:34:36.755Z,19.27
2022-09-14T16:37:04.236Z,19.25
2022-09-14T16:39:31.579Z,19.30
2022-09-14T16:41:58.542Z,19.33
2022-09-14T16:44:24.743Z,19.05
2022-09-14T16:46:51.005Z,19.27
2022-09-14T16:49:17.260Z,19.24
2022-09-14T16:51:43.527Z,19.28
2022-09-14T16:54:09.784Z,19.28
2022-09-14T16:56:36.034Z,19.37
2022-09-14T16:59:02.342Z,19.46
2022-09-14T17:01:28.818Z,19.48
2022-09-14T17:03:55.167Z,19.51
2022-09-14T17:06:21.430Z,19.51
2022-09-14T17:08:47.690Z,19.31
2022-09-14T17:11:13.956Z,19.24
2022-09-14T17:13:40.313Z,19.24
2022-09-14T17:16:07.014Z,19.13
2022-09-14T17:18:33.361Z,19.33
2022-09-14T17:20:59.624Z,19.10
2022-09-14T17:23:25.881Z,19.19
2022-09-14T17:25:52.354Z,19.16
2022-09-14T17:28:18.612Z,19.24
2022-09-14T17:30:44.993Z,19.27
2022-09-14T17:33:11.273Z,19.23
2022-09-14T17:35:37.537Z,19.13
2022-09-14T17:38:03.802Z,19.29
2022-09-14T17:40:30.326Z,19.14
2022-09-14T17:42:56.608Z,19.24
2022-09-14T17:45:23.119Z,19.31
2022-09-14T17:47:49.385Z,19.06
2022-09-14T17:50:16.643Z,19.13
2022-09-14T17:52:42.899Z,19.19
2022-09-14T17:55:09.220Z,19.24
2022-09-14T17:57:35.999Z,19.17
2022-09-14T18:00:02.298Z,19.12
2022-09-14T18:02:28.559Z,19.01
2022-09-14T18:04:55.029Z,19.06
2022-09-14T18:07:21.291Z,19.13
2022-09-14T18:09:47.541Z,19.09
2022-09-14T18:12:15.816Z,19.13
2022-09-14T18:14:42.075Z,19.08
2022-09-14T18:17:08.347Z,18.88
2022-09-14T18:19:34.611Z,19.04
2022-09-14T18:22:00.867Z,18.92
2022-09-14T18:24:27.131Z,19.05
2022-09-14T18:26:53.389Z,19.06
2022-09-14T18:29:21.038Z,19.09
2022-09-14T18:31:47.385Z,19.05
2022-09-14T18:34:13.682Z,18.98
2022-09-14T18:36:39.943Z,18.91
2022-09-14T18:39:06.221Z,18.97
2022-09-14T18:41:34.027Z,18.98
2022-09-14T18:44:00.320Z,19.01
2022-09-14T18:46:28.372Z,19.02
2022-09-14T18:48:54.982Z,18.99
2022-09-14T18:51:21.301Z,18.81
2022-09-14T18:53:47.561Z,18.90
2022-09-14T18:56:13.836Z,18.74
2022-09-14T18:58:40.101Z,18.74
2022-09-14T19:01:06.391Z,18.59
2022-09-14T19:03:32.843Z,18.70
2022-09-14T19:05:59.381Z,18.65
2022-09-14T19:08:25.639Z,18.58
2022-09-14T19:10:51.916Z,18.56
2022-09-14T19:13:18.167Z,18.41
2022-09-14T19:15:44.524Z,18.42
2022-09-14T19:18:10.817Z,18.60
2022-09-14T19:21:02.170Z,18.60
2022-09-14T19:23:23.915Z,18.71
2022-09-14T19:25:50.381Z,18.56
2022-09-14T19:28:16.709Z,18.61
2022-09-14T19:30:43.223Z,18.62
2022-09-14T19:33:09.512Z,18.63
2022-09-14T19:35:36.737Z,18.51
2022-09-14T19:38:03.021Z,18.56
2022-09-14T19:40:29.356Z,18.55
2022-09-14T19:42:55.766Z,18.40
2022-09-14T19:45:22.072Z,17.99
2022-09-14T19:47:48.487Z,17.74
2022-09-14T19:50:14.749Z,18.02
2022-09-14T19:52:41.308Z,18.06
2022-09-14T19:55:07.575Z,17.43
2022-09-14T19:57:36.561Z,16.91
2022-09-14T20:00:02.830Z,17.09
2022-09-14T20:02:29.240Z,16.78
2022-09-14T20:04:55.691Z,16.84
2022-09-14T20:07:21.986Z,17.32
2022-09-14T20:09:48.292Z,17.26
2022-09-14T20:12:14.557Z,17.59
2022-09-14T20:14:40.994Z,17.79
2022-09-14T20:17:07.529Z,17.91
2022-09-14T20:19:35.866Z,17.57
2022-09-14T20:22:02.130Z,17.74
2022-09-14T20:24:28.404Z,17.71
2022-09-14T20:26:54.702Z,17.72
2022-09-14T20:29:20.993Z,17.71
2022-09-14T20:31:47.253Z,17.74
2022-09-14T20:34:13.651Z,17.74
2022-09-14T20:36:39.913Z,17.81
2022-09-14T20:39:06.193Z,17.65
2022-09-14T20:41:33.200Z,17.82
2022-09-14T20:43:59.403Z,17.86
2022-09-14T20:46:25.743Z,17.90
2022-09-14T20:48:52.093Z,17.97
2022-09-14T20:54:05.004Z,18.12
2022-09-14T20:56:31.280Z,18.09
2022-09-14T20:58:58.099Z,17.60
2022-09-14T21:01:24.525Z,17.70
2022-09-14T21:03:50.955Z,17.87
2022-09-14T21:06:17.807Z,17.71
2022-09-14T21:08:44.063Z,17.90
2022-09-14T21:11:10.875Z,17.95
2022-09-14T21:11:13.158Z,18.07
2022-09-14T21:13:37.141Z,17.99
2022-09-14T21:16:03.509Z,18.02
2022-09-14T21:18:29.779Z,17.93
2022-09-14T21:20:59.935Z,17.80
2022-09-14T21:23:28.617Z,17.60
2022-09-14T21:25:55.225Z,17.46
2022-09-14T21:28:21.487Z,17.52
2022-09-14T21:30:49.187Z,17.49
2022-09-14T21:33:16.400Z,17.53
2022-09-14T21:35:42.596Z,17.43
2022-09-14T21:38:09.119Z,17.50
2022-09-14T21:40:37.040Z,17.51
2022-09-14T21:43:03.211Z,17.55
2022-09-14T21:45:29.476Z,17.15
2022-09-14T21:47:55.736Z,16.82
2022-09-14T21:50:21.996Z,17.04
2022-09-14T21:52:48.261Z,17.00
2022-09-14T21:55:14.540Z,17.11
2022-09-14T21:57:40.806Z,17.14
2022-09-14T22:00:07.236Z,17.09
2022-09-14T22:02:34.403Z,17.13
2022-09-14T22:05:00.764Z,16.88
2022-09-14T22:07:27.944Z,16.87
2022-09-14T22:09:54.204Z,17.00
2022-09-14T22:12:20.463Z,16.76
2022-09-14T22:14:46.763Z,16.03
2022-09-14T22:17:13.015Z,16.33
2022-09-14T22:19:39.943Z,16.67
2022-09-14T22:22:06.214Z,16.52
2022-09-14T22:24:37.376Z,16.14
2022-09-14T22:27:04.330Z,16.38
2022-09-14T22:29:30.601Z,16.60
2022-09-14T22:31:56.867Z,16.80
2022-09-14T22:34:24.373Z,16.66
2022-09-14T22:36:50.680Z,16.50
2022-09-14T22:39:16.956Z,16.26
2022-09-14T22:41:43.211Z,16.65
2022-09-14T22:44:09.470Z,16.77
2022-09-14T22:46:35.781Z,16.61
2022-09-14T22:49:02.127Z,16.36
2022-09-14T22:51:28.389Z,16.57
2022-09-14T22:53:54.646Z,16.79
2022-09-14T22:56:20.935Z,16.90
2022-09-14T22:58:47.185Z,16.98
2022-09-14T23:01:13.494Z,16.63
2022-09-14T23:03:39.792Z,16.88
2022-09-14T23:06:06.086Z,16.85
2022-09-14T23:08:32.608Z,16.81
2022-09-14T23:10:58.921Z,16.50
2022-09-14T23:13:25.178Z,16.84
2022-09-14T23:15:51.460Z,16.84
2022-09-14T23:18:17.725Z,16.88
2022-09-14T23:20:43.978Z,16.97
2022-09-14T23:23:10.245Z,16.94
2022-09-14T23:25:36.524Z,16.98
2022-09-14T23:28:02.788Z,17.02
2022-09-14T23:30:29.092Z,16.99
2022-09-14T23:32:55.577Z,17.00
2022-09-14T23:35:21.836Z,16.87
2022-09-14T23:37:48.111Z,16.74
2022-09-14T23:40:14.409Z,16.74
2022-09-14T23:42:40.723Z,16.85
2022-09-14T23:45:07.143Z,16.93
2022-09-14T23:47:33.413Z,16.75
2022-09-14T23:49:59.712Z,16.72
2022-09-14T23:52:25.980Z,16.84
2022-09-14T23:54:52.241Z,16.77
2022-09-14T23:57:18.533Z,16.86
2022-09-14T23:59:44.806Z,16.79
